createdAt,value
2023-02-12T00:02:35.779Z,6.90
2023-02-12T00:07:38.485Z,6.90
2023-02-12T00:12:42.539Z,6.90
2023-02-12T00:17:45.212Z,6.80
2023-02-12T00:22:47.831Z,6.90
2023-02-12T00:27:51.783Z,6.90
2023-02-12T00:32:54.641Z,6.90
2023-02-12T00:37:57.259Z,6.90
2023-02-12T00:43:01.198Z,7.00
2023-02-12T00:48:03.937Z,6.90
2023-02-12T00:53:06.661Z,6.90
2023-02-12T00:58:11.175Z,6.90
2023-02-12T01:03:13.848Z,6.90
2023-02-12T01:08:17.599Z,6.90
2023-02-12T01:13:21.561Z,6.90
2023-02-12T01:18:24.212Z,7.00
2023-02-12T01:23:26.961Z,6.90
2023-02-12T01:28:31.024Z,6.90
2023-02-12T01:33:33.693Z,7.00
2023-02-12T01:38:36.412Z,6.90
2023-02-12T01:43:40.787Z,6.90
2023-02-12T01:48:46.100Z,6.90
2023-02-12T01:53:53.331Z,7.00
2023-02-12T01:58:57.938Z,7.00
2023-02-12T02:04:04.280Z,7.00
2023-02-12T02:09:07.446Z,7.00
2023-02-12T02:14:28.870Z,7.00
2023-02-12T02:19:47.037Z,7.10
2023-02-12T02:25:24.374Z,7.10
2023-02-12T02:30:35.347Z,7.00
2023-02-12T02:35:42.449Z,7.00
2023-02-12T02:40:51.727Z,6.90
2023-02-12T02:46:03.304Z,6.90
2023-02-12T02:51:10.386Z,7.00
2023-02-12T02:56:16.822Z,7.10
2023-02-12T03:01:24.896Z,7.00
2023-02-12T03:06:33.522Z,7.00
2023-02-12T03:11:37.247Z,6.90
2023-02-12T03:16:45.299Z,6.90
2023-02-12T03:21:51.014Z,6.90
2023-02-12T03:26:59.129Z,6.90
2023-02-12T03:32:18.143Z,6.90
2023-02-12T03:37:29.335Z,6.90
2023-02-12T03:42:37.218Z,6.90
2023-02-12T03:47:47.031Z,7.00
2023-02-12T03:52:51.378Z,6.90
2023-02-12T03:58:00.833Z,7.00
2023-02-12T04:03:05.674Z,6.90
2023-02-12T04:08:12.594Z,6.90
2023-02-12T04:13:22.453Z,6.90
2023-02-12T04:18:34.224Z,6.80
2023-02-12T04:23:51.196Z,6.90
2023-02-12T04:29:06.219Z,7.00
2023-02-12T04:34:15.351Z,7.00
2023-02-12T04:39:22.724Z,7.10
2023-02-12T04:44:27.408Z,7.00
2023-02-12T04:49:31.646Z,6.90
2023-02-12T04:54:34.387Z,6.90
2023-02-12T04:59:37.024Z,6.80
2023-02-12T05:04:41.231Z,6.70
2023-02-12T05:09:46.682Z,6.70
2023-02-12T05:14:49.355Z,6.70
2023-02-12T05:19:53.376Z,6.70
2023-02-12T05:24:56.014Z,6.70
2023-02-12T05:29:58.697Z,6.70
2023-02-12T05:35:02.714Z,6.70
2023-02-12T05:40:06.967Z,6.70
2023-02-12T05:45:10.221Z,6.70
2023-02-12T05:50:14.223Z,6.70
2023-02-12T05:55:18.953Z,6.80
2023-02-12T06:00:22.510Z,6.70
2023-02-12T06:05:26.481Z,6.60
2023-02-12T06:10:29.102Z,6.70
2023-02-12T06:15:32.215Z,6.80
2023-02-12T06:20:36.192Z,6.80
2023-02-12T06:25:38.847Z,6.90
2023-02-12T06:30:41.552Z,6.90
2023-02-12T06:35:45.680Z,6.80
2023-02-12T06:40:48.414Z,6.80
2023-02-12T06:45:51.060Z,6.70
2023-02-12T06:50:55.025Z,6.70
2023-02-12T06:55:57.819Z,6.80
2023-02-12T07:01:10.641Z,6.80
2023-02-12T07:06:14.866Z,6.80
2023-02-12T07:11:17.902Z,7.00
2023-02-12T07:16:21.081Z,7.10
2023-02-12T07:21:25.209Z,7.10
2023-02-12T07:26:27.906Z,7.30
2023-02-12T07:31:30.683Z,7.40
2023-02-12T07:36:35.105Z,7.50
2023-02-12T07:41:38.018Z,7.50
2023-02-12T07:46:44.529Z,7.60
2023-02-12T07:51:51.243Z,7.50
2023-02-12T07:56:53.929Z,7.60
2023-02-12T08:01:58.304Z,7.70
2023-02-12T08:07:02.851Z,7.80
2023-02-12T08:12:08.327Z,7.90
2023-02-12T08:17:11.172Z,8.00
2023-02-12T08:22:56.879Z,8.10
2023-02-12T08:41:12.895Z,8.70
2023-02-12T08:46:56.207Z,8.40
2023-02-12T08:52:25.762Z,8.50
2023-02-12T08:57:29.766Z,8.50
2023-02-12T09:02:33.167Z,8.50
2023-02-12T09:07:35.811Z,8.70
2023-02-12T09:12:39.800Z,8.60
2023-02-12T09:17:43.718Z,8.70
2023-02-12T09:22:46.514Z,8.60
2023-02-12T09:27:50.511Z,8.80
2023-02-12T09:32:53.208Z,9.10
2023-02-12T09:37:55.831Z,9.20
2023-02-12T09:43:12.842Z,9.40
2023-02-12T09:48:39.176Z,9.50
2023-02-12T09:53:46.740Z,9.60
2023-02-12T09:58:54.002Z,9.40
2023-02-12T10:03:57.461Z,9.40
2023-02-12T10:09:11.634Z,9.50
2023-02-12T10:14:31.390Z,9.70
2023-02-12T10:20:05.033Z,9.80
2023-02-12T10:25:22.485Z,10.20
2023-02-12T10:30:32.220Z,10.20
2023-02-12T10:35:36.417Z,10.10
2023-02-12T10:40:44.143Z,9.90
2023-02-12T10:45:48.881Z,9.90
2023-02-12T10:51:03.544Z,9.90
2023-02-12T10:56:17.255Z,10.00
2023-02-12T11:01:26.121Z,10.40
2023-02-12T11:06:31.083Z,10.70
2023-02-12T11:11:39.626Z,10.80
2023-02-12T11:16:53.003Z,10.90
2023-02-12T11:22:08.220Z,11.30
2023-02-12T11:27:30.569Z,12.00
2023-02-12T11:32:34.549Z,12.40
2023-02-12T11:37:42.705Z,12.50
2023-02-12T11:42:50.492Z,12.00
2023-02-12T11:47:54.538Z,12.00
2023-02-12T11:53:01.335Z,11.90
2023-02-12T11:58:06.717Z,11.90
2023-02-12T12:03:16.134Z,11.40
2023-02-12T12:08:25.672Z,11.40
2023-02-12T12:13:34.777Z,11.40
2023-02-12T12:19:03.627Z,11.30
2023-02-12T12:24:12.265Z,11.30
2023-02-12T12:29:20.780Z,11.00
2023-02-12T12:34:26.322Z,10.70
2023-02-12T12:39:33.913Z,10.30
2023-02-12T12:44:55.993Z,10.10
2023-02-12T12:50:19.869Z,10.00
2023-02-12T12:55:39.541Z,9.70
2023-02-12T13:01:06.989Z,9.60
2023-02-12T13:06:27.476Z,9.60
2023-02-12T13:11:39.920Z,9.50
2023-02-12T13:16:49.057Z,9.70
2023-02-12T13:21:59.388Z,9.70
2023-02-12T13:27:06.130Z,9.70
2023-02-12T13:32:16.615Z,9.70
2023-02-12T13:37:32.755Z,9.50
2023-02-12T13:42:45.828Z,9.30
2023-02-12T13:47:59.899Z,9.30
2023-02-12T13:53:16.206Z,9.30
2023-02-12T13:58:56.049Z,9.40
2023-02-12T14:04:16.508Z,9.80
2023-02-12T14:09:23.830Z,10.00
2023-02-12T14:14:29.006Z,10.20
2023-02-12T14:19:39.527Z,10.20
2023-02-12T14:24:53.277Z,10.00
2023-02-12T14:30:05.480Z,10.00
2023-02-12T14:35:33.945Z,9.80
2023-02-12T14:40:44.108Z,9.70
2023-02-12T14:45:46.790Z,9.50
2023-02-12T14:50:52.212Z,9.40
2023-02-12T14:55:57.957Z,9.40
2023-02-12T15:01:03.952Z,9.30
2023-02-12T15:06:14.148Z,9.20
2023-02-12T15:11:25.918Z,9.10
2023-02-12T15:16:35.691Z,9.00
2023-02-12T15:21:39.096Z,8.90
2023-02-12T15:26:45.953Z,8.90
2023-02-12T15:31:53.918Z,8.90
2023-02-12T15:37:00.872Z,8.80
2023-02-12T15:42:05.030Z,8.80
2023-02-12T15:47:14.489Z,8.70
2023-02-12T15:52:20.655Z,8.50
2023-02-12T15:57:25.806Z,8.30
2023-02-12T16:02:30.980Z,8.30
2023-02-12T16:07:39.515Z,8.30
2023-02-12T16:12:43.552Z,8.30
2023-02-12T16:17:49.137Z,8.30
2023-02-12T16:22:52.804Z,8.20
2023-02-12T16:28:01.238Z,8.10
2023-02-12T16:33:04.013Z,8.00
2023-02-12T16:38:39.969Z,8.00
2023-02-12T16:43:43.952Z,8.10
2023-02-12T16:48:49.403Z,8.20
2023-02-12T16:53:53.973Z,8.20
2023-02-12T16:59:00.606Z,8.10
2023-02-12T17:04:06.744Z,8.00
2023-02-12T17:09:11.112Z,8.00
2023-02-12T17:14:17.075Z,7.90
2023-02-12T17:19:19.844Z,7.90
2023-02-12T17:24:25.145Z,7.90
2023-02-12T17:29:30.596Z,7.90
2023-02-12T17:34:46.578Z,7.90
2023-02-12T17:39:50.918Z,8.00
2023-02-12T17:44:55.046Z,8.00
2023-02-12T17:49:57.774Z,8.00
2023-02-12T17:55:00.448Z,7.90
2023-02-12T18:00:05.365Z,7.90
2023-02-12T18:05:09.110Z,7.90
2023-02-12T18:10:12.804Z,7.80
2023-02-12T18:15:16.809Z,7.90
2023-02-12T18:20:19.641Z,7.90
2023-02-12T18:25:22.376Z,7.80
2023-02-12T18:30:26.517Z,7.80
2023-02-12T18:35:29.437Z,7.80
2023-02-12T18:40:32.151Z,7.80
2023-02-12T18:45:36.194Z,7.80
2023-02-12T18:50:38.889Z,7.90
2023-02-12T18:55:41.570Z,7.90
2023-02-12T19:00:45.563Z,7.90
2023-02-12T19:05:48.548Z,7.90
2023-02-12T19:10:51.415Z,7.80
2023-02-12T19:15:55.468Z,7.80
2023-02-12T21:42:35.451Z,7.00
2023-02-12T21:48:14.630Z,6.90
2023-02-12T21:53:18.811Z,7.00
2023-02-12T21:58:22.835Z,6.90
2023-02-12T22:03:25.815Z,6.90
2023-02-12T22:08:29.895Z,6.90
2023-02-12T22:13:33.128Z,6.90
2023-02-12T22:18:35.900Z,6.90
2023-02-12T22:23:40.288Z,6.70
2023-02-12T22:28:44.451Z,6.40
2023-02-12T22:33:47.270Z,6.30
2023-02-12T22:38:51.581Z,6.20
2023-02-12T22:43:54.864Z,6.30
2023-02-12T22:48:57.620Z,6.40
2023-02-12T22:54:01.834Z,6.50
2023-02-12T22:59:04.519Z,6.60
2023-02-12T23:04:07.293Z,6.60
2023-02-12T23:09:13.608Z,6.70
2023-02-12T23:14:16.461Z,6.80
2023-02-12T23:19:19.155Z,6.90
2023-02-12T23:24:24.532Z,6.90
2023-02-12T23:29:27.193Z,7.00
2023-02-12T23:34:29.893Z,6.80
2023-02-12T23:39:33.848Z,6.80
2023-02-12T23:44:38.715Z,6.80
2023-02-12T23:49:41.465Z,6.80
2023-02-12T23:54:45.449Z,6.80
2023-02-12T23:59:48.111Z,6.80
